createdAt,value
2022-12-23T00:01:46.474Z,18.30
2022-12-23T00:04:13.363Z,18.20
2022-12-23T00:06:40.213Z,18.20
2022-12-23T00:09:06.900Z,18.20
2022-12-23T00:11:33.607Z,18.20
2022-12-23T00:14:21.992Z,18.20
2022-12-23T00:16:50.544Z,18.10
2022-12-23T00:19:17.540Z,18.10
2022-12-23T00:21:44.287Z,18.00
2022-12-23T00:24:11.738Z,18.00
2022-12-23T00:26:39.402Z,18.00
2022-12-23T00:29:06.825Z,18.00
2022-12-23T00:31:33.549Z,18.00
2022-12-23T00:34:00.265Z,18.00
2022-12-23T00:36:30.793Z,17.90
2022-12-23T00:39:18.442Z,17.90
2022-12-23T00:42:03.962Z,17.90
2022-12-23T00:44:30.812Z,17.90
2022-12-23T00:46:57.497Z,17.80
2022-12-23T00:49:42.247Z,17.80
2022-12-23T00:52:13.852Z,17.80
2022-12-23T00:54:40.929Z,17.80
2022-12-23T00:57:07.614Z,17.70
2022-12-23T00:59:34.284Z,17.70
2022-12-23T01:02:19.801Z,17.70
2022-12-23T01:05:05.052Z,17.70
2022-12-23T01:07:31.835Z,17.60
2022-12-23T01:09:58.548Z,17.60
2022-12-23T01:12:25.288Z,17.60
2022-12-23T01:14:52.018Z,17.60
2022-12-23T01:17:18.973Z,17.60
2022-12-23T01:19:45.719Z,17.60
2022-12-23T01:22:12.356Z,17.50
2022-12-23T01:24:39.067Z,17.50
2022-12-23T01:27:05.792Z,17.50
2022-12-23T01:29:32.543Z,17.50
2022-12-23T01:31:59.344Z,17.50
2022-12-23T01:34:31.069Z,17.40
2022-12-23T01:37:01.224Z,17.40
2022-12-23T01:39:27.986Z,17.40
2022-12-23T01:42:13.328Z,17.40
2022-12-23T01:44:50.555Z,17.40
2022-12-23T01:47:20.495Z,17.40
2022-12-23T01:49:50.466Z,17.30
2022-12-23T01:52:17.298Z,17.30
2022-12-23T01:54:44.762Z,17.30
2022-12-23T01:57:12.137Z,17.30
2022-12-23T01:59:57.942Z,17.30
2022-12-23T02:02:44.883Z,17.30
2022-12-23T02:05:12.356Z,17.30
2022-12-23T02:07:58.563Z,17.20
2022-12-23T02:10:32.336Z,17.20
2022-12-23T02:13:32.856Z,17.20
2022-12-23T02:16:18.147Z,17.20
2022-12-23T02:19:00.443Z,17.20
2022-12-23T02:21:57.003Z,17.10
2022-12-23T02:24:38.955Z,17.10
2022-12-23T02:27:14.141Z,17.10
2022-12-23T02:30:01.992Z,17.10
2022-12-23T02:32:46.828Z,17.10
2022-12-23T02:35:31.283Z,17.10
2022-12-23T02:38:15.018Z,17.00
2022-12-23T02:40:55.779Z,17.00
2022-12-23T02:43:37.265Z,17.00
2022-12-23T02:46:13.510Z,17.00
2022-12-23T02:49:08.011Z,17.00
2022-12-23T02:51:39.455Z,17.00
2022-12-23T02:54:10.301Z,16.90
2022-12-23T02:56:42.956Z,16.90
2022-12-23T02:59:17.687Z,16.90
2022-12-23T03:01:45.730Z,16.90
2022-12-23T03:04:12.451Z,16.90
2022-12-23T03:06:44.471Z,16.90
2022-12-23T03:09:45.560Z,16.90
2022-12-23T03:12:24.864Z,16.80
2022-12-23T03:15:46.771Z,16.80
2022-12-23T03:18:26.974Z,16.80
2022-12-23T03:21:20.099Z,16.80
2022-12-23T03:24:24.202Z,16.80
2022-12-23T03:27:09.588Z,16.80
2022-12-23T03:30:01.923Z,16.70
2022-12-23T03:32:33.119Z,16.70
2022-12-23T03:35:02.350Z,16.70
2022-12-23T03:37:32.492Z,16.70
2022-12-23T03:40:06.900Z,16.70
2022-12-23T03:42:37.827Z,16.70
2022-12-23T03:45:38.262Z,16.60
2022-12-23T03:48:09.726Z,16.60
2022-12-23T03:50:37.745Z,16.60
2022-12-23T03:53:13.507Z,16.60
2022-12-23T03:55:48.731Z,16.60
2022-12-23T03:58:25.532Z,16.60
2022-12-23T04:01:18.381Z,16.60
2022-12-23T04:03:58.328Z,16.60
2022-12-23T04:06:28.757Z,16.60
2022-12-23T04:08:57.646Z,16.60
2022-12-23T04:11:24.923Z,16.50
2022-12-23T04:13:53.172Z,16.50
2022-12-23T04:16:20.084Z,16.50
2022-12-23T04:18:46.969Z,16.50
2022-12-23T04:21:13.721Z,16.50
2022-12-23T04:23:40.460Z,16.50
2022-12-23T04:26:07.194Z,16.50
2022-12-23T04:28:33.920Z,16.50
2022-12-23T04:31:00.702Z,16.50
2022-12-23T04:33:27.452Z,16.50
2022-12-23T04:35:54.136Z,16.40
2022-12-23T04:38:20.830Z,16.40
2022-12-23T04:40:47.468Z,16.40
2022-12-23T04:43:14.739Z,16.40
2022-12-23T04:45:41.441Z,16.40
2022-12-23T04:48:09.232Z,16.40
2022-12-23T04:50:35.930Z,16.40
2022-12-23T04:53:02.656Z,16.40
2022-12-23T04:55:29.309Z,16.40
2022-12-23T04:57:56.016Z,16.40
2022-12-23T05:00:22.751Z,16.40
2022-12-23T05:02:49.566Z,16.30
2022-12-23T05:05:16.336Z,16.30
2022-12-23T05:07:42.971Z,16.30
2022-12-23T05:10:10.512Z,16.30
2022-12-23T05:12:37.289Z,16.30
2022-12-23T05:15:04.205Z,16.30
2022-12-23T05:17:30.906Z,16.30
2022-12-23T05:19:57.671Z,16.30
2022-12-23T05:22:24.405Z,16.20
2022-12-23T05:24:51.198Z,16.20
2022-12-23T05:27:18.114Z,16.20
2022-12-23T05:29:44.867Z,16.20
2022-12-23T05:32:11.630Z,16.20
2022-12-23T05:34:38.347Z,16.20
2022-12-23T05:37:05.049Z,16.20
2022-12-23T05:39:31.691Z,16.10
2022-12-23T05:41:58.418Z,16.10
2022-12-23T05:44:25.081Z,16.10
2022-12-23T05:46:51.853Z,16.10
2022-12-23T05:49:18.515Z,16.10
2022-12-23T05:51:45.226Z,16.10
2022-12-23T05:54:12.007Z,16.10
2022-12-23T05:56:38.744Z,16.10
2022-12-23T05:59:05.521Z,16.00
2022-12-23T06:01:32.513Z,16.00
2022-12-23T06:03:59.477Z,16.00
2022-12-23T06:06:26.369Z,16.00
2022-12-23T06:08:59.136Z,16.00
2022-12-23T06:11:26.331Z,16.00
2022-12-23T06:13:52.994Z,16.00
2022-12-23T06:16:19.788Z,16.00
2022-12-23T06:18:46.625Z,16.00
2022-12-23T06:21:13.399Z,16.00
2022-12-23T06:23:40.104Z,16.00
2022-12-23T06:26:06.861Z,16.00
2022-12-23T06:28:33.562Z,16.00
2022-12-23T06:31:00.220Z,16.00
2022-12-23T06:33:26.935Z,15.90
2022-12-23T06:35:57.588Z,16.00
2022-12-23T06:38:28.105Z,15.90
2022-12-23T06:41:03.398Z,15.90
2022-12-23T06:43:30.168Z,15.90
2022-12-23T06:45:56.893Z,15.90
2022-12-23T06:48:23.716Z,15.90
2022-12-23T06:50:50.439Z,15.90
2022-12-23T06:53:17.262Z,15.90
2022-12-23T06:55:43.962Z,15.90
2022-12-23T06:58:10.694Z,15.90
2022-12-23T07:00:37.405Z,15.90
2022-12-23T07:03:04.266Z,15.80
2022-12-23T07:05:37.055Z,15.80
2022-12-23T07:08:03.999Z,15.80
2022-12-23T07:10:30.941Z,15.80
2022-12-23T07:12:57.682Z,15.80
2022-12-23T07:15:24.370Z,15.80
2022-12-23T07:17:51.109Z,15.80
2022-12-23T07:20:18.034Z,15.80
2022-12-23T07:22:44.717Z,15.80
2022-12-23T07:25:11.541Z,15.80
2022-12-23T07:27:38.338Z,15.80
2022-12-23T07:30:05.807Z,15.80
2022-12-23T07:32:32.548Z,15.80
2022-12-23T07:34:59.280Z,15.80
2022-12-23T07:37:26.018Z,15.80
2022-12-23T07:39:52.702Z,15.70
2022-12-23T07:42:45.227Z,15.70
2022-12-23T07:45:06.884Z,15.70
2022-12-23T07:47:33.829Z,15.70
2022-12-23T07:50:00.503Z,15.70
2022-12-23T07:52:28.243Z,15.70
2022-12-23T07:54:54.976Z,15.70
2022-12-23T07:57:21.640Z,15.70
2022-12-23T07:59:48.418Z,15.70
2022-12-23T08:02:15.268Z,15.70
2022-12-23T08:04:45.977Z,15.70
2022-12-23T08:07:13.426Z,15.60
2022-12-23T08:09:40.142Z,15.60
2022-12-23T08:12:07.091Z,15.60
2022-12-23T08:14:33.829Z,15.60
2022-12-23T08:17:00.592Z,15.60
2022-12-23T08:19:27.394Z,15.60
2022-12-23T08:21:54.071Z,15.60
2022-12-23T08:24:20.867Z,15.60
2022-12-23T08:26:47.603Z,15.60
2022-12-23T08:29:14.312Z,15.60
2022-12-23T08:31:41.074Z,15.60
2022-12-23T08:34:08.004Z,15.60
2022-12-23T08:36:35.722Z,15.60
2022-12-23T08:39:06.369Z,15.60
2022-12-23T08:41:38.123Z,15.60
2022-12-23T08:44:04.894Z,15.60
2022-12-23T08:46:31.939Z,15.60
2022-12-23T08:48:58.731Z,15.60
2022-12-23T08:51:26.543Z,15.60
2022-12-23T08:54:01.025Z,15.50
2022-12-23T08:56:39.435Z,15.60
2022-12-23T08:59:06.729Z,15.60
2022-12-23T09:01:34.823Z,15.50
2022-12-23T09:04:06.064Z,15.50
2022-12-23T09:06:36.860Z,15.50
2022-12-23T09:09:04.657Z,15.50
2022-12-23T09:11:31.528Z,15.50
2022-12-23T09:14:00.346Z,15.50
2022-12-23T09:16:27.940Z,15.50
2022-12-23T09:18:54.877Z,15.50
2022-12-23T09:21:23.335Z,15.50
2022-12-23T09:23:50.950Z,15.50
2022-12-23T09:26:23.828Z,15.50
2022-12-23T09:28:50.924Z,15.50
2022-12-23T09:31:18.725Z,15.50
2022-12-23T09:33:50.076Z,15.50
2022-12-23T09:36:17.691Z,15.40
2022-12-23T09:38:44.472Z,15.50
2022-12-23T09:41:42.846Z,15.40
2022-12-23T09:44:47.415Z,15.40
2022-12-23T09:47:20.770Z,15.40
2022-12-23T09:49:49.725Z,15.40
2022-12-23T09:52:23.651Z,15.40
2022-12-23T09:54:53.455Z,15.40
2022-12-23T09:57:35.278Z,15.40
2022-12-23T10:00:14.485Z,15.40
2022-12-23T10:03:12.421Z,15.40
2022-12-23T10:05:51.570Z,15.40
2022-12-23T10:08:29.968Z,15.40
2022-12-23T10:11:13.826Z,15.40
2022-12-23T10:13:50.696Z,15.40
2022-12-23T10:16:25.655Z,15.40
2022-12-23T10:19:20.713Z,15.40
2022-12-23T10:21:52.801Z,15.30
2022-12-23T10:24:24.207Z,15.30
2022-12-23T10:26:56.542Z,15.30
2022-12-23T10:29:25.921Z,15.40
2022-12-23T10:32:04.257Z,15.40
2022-12-23T10:35:14.896Z,15.30
2022-12-23T10:37:47.841Z,15.30
2022-12-23T10:40:25.016Z,15.30
2022-12-23T10:43:10.346Z,15.30
2022-12-23T10:46:04.346Z,15.30
2022-12-23T10:49:13.797Z,15.30
2022-12-23T10:51:47.094Z,15.30
2022-12-23T10:54:23.537Z,15.30
2022-12-23T10:56:50.284Z,15.30
2022-12-23T10:59:28.054Z,15.30
2022-12-23T11:02:12.981Z,15.30
2022-12-23T11:04:47.422Z,15.30
2022-12-23T11:07:43.459Z,15.30
2022-12-23T11:10:13.037Z,15.30
2022-12-23T11:12:45.609Z,15.30
2022-12-23T11:15:30.380Z,15.30
2022-12-23T11:18:12.413Z,15.30
2022-12-23T11:20:41.361Z,15.20
2022-12-23T11:23:28.804Z,15.30
2022-12-23T11:26:17.477Z,15.20
2022-12-23T11:28:52.853Z,15.30
2022-12-23T11:31:35.055Z,15.30
2022-12-23T11:34:05.025Z,15.20
2022-12-23T11:36:33.592Z,15.20
2022-12-23T11:39:04.939Z,15.20
2022-12-23T11:41:49.811Z,15.20
2022-12-23T11:44:36.046Z,15.20
2022-12-23T11:47:29.276Z,15.20
2022-12-23T11:50:03.180Z,15.20
2022-12-23T11:52:32.563Z,15.20
2022-12-23T11:55:01.782Z,15.20
2022-12-23T11:57:33.890Z,15.20
2022-12-23T12:00:04.679Z,15.20
2022-12-23T12:02:37.541Z,15.20
2022-12-23T12:05:06.828Z,15.20
2022-12-23T12:07:33.691Z,15.20
2022-12-23T12:10:02.260Z,15.20
2022-12-23T12:12:30.056Z,15.20
2022-12-23T12:14:59.409Z,15.20
2022-12-23T12:17:44.135Z,15.20
2022-12-23T12:20:27.951Z,15.10
2022-12-23T12:23:03.957Z,15.10
2022-12-23T12:25:52.579Z,15.20
2022-12-23T12:28:24.849Z,15.10
2022-12-23T12:31:11.713Z,15.20
2022-12-23T12:33:53.430Z,15.10
2022-12-23T12:36:31.706Z,15.10
2022-12-23T12:39:00.176Z,15.10
2022-12-23T12:41:37.532Z,15.10
2022-12-23T12:44:23.070Z,15.10
2022-12-23T12:47:16.026Z,15.10
2022-12-23T12:50:12.897Z,15.10
2022-12-23T12:52:42.279Z,15.10
2022-12-23T12:55:36.980Z,15.10
2022-12-23T12:58:03.780Z,15.10
2022-12-23T13:00:42.953Z,15.10
2022-12-23T13:03:12.691Z,15.10
2022-12-23T13:05:56.899Z,15.10
2022-12-23T13:08:52.723Z,15.10
2022-12-23T13:11:28.915Z,15.10
2022-12-23T13:14:19.895Z,15.10
2022-12-23T13:17:00.908Z,15.00
2022-12-23T13:19:44.224Z,15.10
2022-12-23T13:22:16.523Z,15.10
2022-12-23T13:25:16.813Z,15.00
2022-12-23T13:28:07.921Z,15.00
2022-12-23T13:30:42.385Z,15.10
2022-12-23T13:33:24.231Z,15.10
2022-12-23T13:35:53.700Z,15.10
2022-12-23T13:38:44.385Z,15.10
2022-12-23T13:41:39.914Z,15.00
2022-12-23T13:44:09.628Z,15.10
2022-12-23T13:46:57.256Z,15.00
2022-12-23T13:49:48.403Z,15.00
2022-12-23T13:52:30.695Z,15.00
2022-12-23T13:55:41.306Z,15.00
2022-12-23T13:58:19.381Z,15.00
2022-12-23T14:00:46.464Z,15.00
2022-12-23T14:03:22.401Z,15.00
2022-12-23T14:05:50.751Z,15.00
2022-12-23T14:08:29.261Z,15.00
2022-12-23T14:11:11.805Z,15.00
2022-12-23T14:13:51.632Z,15.00
2022-12-23T14:16:21.424Z,15.00
2022-12-23T14:19:18.632Z,15.00
2022-12-23T14:22:09.365Z,15.00
2022-12-23T14:25:04.200Z,15.00
2022-12-23T14:27:52.064Z,15.00
2022-12-23T14:30:41.165Z,15.00
2022-12-23T14:33:14.362Z,15.00
2022-12-23T14:35:42.835Z,15.00
2022-12-23T14:38:24.233Z,14.90
2022-12-23T14:41:23.943Z,14.90
2022-12-23T14:43:55.770Z,14.90
2022-12-23T14:46:34.098Z,14.90
2022-12-23T14:49:29.767Z,15.00
2022-12-23T14:51:50.694Z,15.00
2022-12-23T14:54:36.357Z,14.90
2022-12-23T14:57:13.950Z,14.90
2022-12-23T14:59:51.959Z,14.90
2022-12-23T15:02:37.385Z,14.90
2022-12-23T15:05:04.825Z,14.90
2022-12-23T15:07:35.545Z,14.90
2022-12-23T15:10:06.982Z,14.90
2022-12-23T15:12:37.880Z,14.90
2022-12-23T15:15:29.841Z,14.90
2022-12-23T15:18:04.893Z,14.90
2022-12-23T15:20:31.872Z,14.90
2022-12-23T15:23:02.133Z,14.90
2022-12-23T15:25:34.621Z,14.90
2022-12-23T15:28:03.624Z,14.90
2022-12-23T15:30:34.799Z,14.90
2022-12-23T15:33:06.392Z,14.90
2022-12-23T15:35:43.238Z,14.90
2022-12-23T15:38:14.517Z,14.90
2022-12-23T15:40:41.349Z,14.90
2022-12-23T15:43:23.735Z,14.90
2022-12-23T15:45:51.609Z,14.90
2022-12-23T15:48:32.398Z,14.80
2022-12-23T15:51:03.522Z,14.80
2022-12-23T15:53:37.450Z,14.80
2022-12-23T15:56:08.239Z,14.90
2022-12-23T15:58:39.412Z,14.80
2022-12-23T16:01:07.416Z,14.80
2022-12-23T16:03:35.680Z,14.80
2022-12-23T16:06:31.825Z,14.90
2022-12-23T16:09:00.209Z,14.80
2022-12-23T16:11:40.823Z,14.80
2022-12-23T16:14:35.596Z,14.80
2022-12-23T16:17:14.474Z,14.80
2022-12-23T16:19:49.325Z,14.80
2022-12-23T16:22:30.441Z,14.80
2022-12-23T16:25:17.006Z,14.80
2022-12-23T16:27:58.936Z,14.80
2022-12-23T16:30:37.175Z,14.80
2022-12-23T16:33:39.729Z,14.80
2022-12-23T16:36:16.608Z,14.80
2022-12-23T16:38:43.861Z,14.90
2022-12-23T16:41:10.586Z,14.90
2022-12-23T16:43:37.598Z,15.00
2022-12-23T16:46:05.481Z,15.00
2022-12-23T16:48:47.915Z,15.20
2022-12-23T16:51:20.241Z,15.30
2022-12-23T16:53:48.316Z,15.40
2022-12-23T16:56:17.381Z,15.60
2022-12-23T16:58:45.480Z,15.80
2022-12-23T17:01:20.926Z,16.10
2022-12-23T17:03:47.880Z,16.30
2022-12-23T17:06:16.932Z,16.50
2022-12-23T17:08:43.803Z,16.90
2022-12-23T17:11:23.993Z,17.20
2022-12-23T17:13:50.992Z,17.50
2022-12-23T17:16:20.037Z,17.80
2022-12-23T17:18:50.667Z,18.20
2022-12-23T17:21:32.466Z,18.50
2022-12-23T17:24:05.441Z,18.80
2022-12-23T17:26:32.221Z,19.00
2022-12-23T17:28:58.995Z,19.20
2022-12-23T17:31:27.187Z,19.40
2022-12-23T17:33:54.540Z,19.50
2022-12-23T17:36:21.791Z,19.70
2022-12-23T17:38:48.761Z,19.80
2022-12-23T17:41:30.925Z,19.90
2022-12-23T17:43:58.521Z,20.00
2022-12-23T17:46:26.089Z,20.10
2022-12-23T17:48:53.269Z,20.10
2022-12-23T17:51:22.014Z,20.20
2022-12-23T17:53:55.107Z,20.20
2022-12-23T17:56:24.827Z,20.20
2022-12-23T17:58:51.648Z,20.20
2022-12-23T18:01:27.439Z,20.20
2022-12-23T18:03:55.392Z,20.20
2022-12-23T18:06:23.257Z,20.20
2022-12-23T18:08:50.454Z,20.20
2022-12-23T18:11:26.046Z,20.20
2022-12-23T18:13:53.698Z,20.20
2022-12-23T18:16:20.518Z,20.20
2022-12-23T18:18:48.166Z,20.20
2022-12-23T18:21:45.010Z,20.10
2022-12-23T18:24:32.245Z,20.10
2022-12-23T18:26:59.039Z,20.00
2022-12-23T18:29:25.794Z,20.00
2022-12-23T18:31:53.047Z,20.00
2022-12-23T18:34:21.063Z,19.90
2022-12-23T18:36:48.706Z,19.90
2022-12-23T18:39:15.597Z,19.80
2022-12-23T18:41:42.289Z,19.80
2022-12-23T18:44:18.417Z,19.80
2022-12-23T18:46:45.202Z,19.70
2022-12-23T18:49:11.997Z,19.70
2022-12-23T18:51:38.678Z,19.60
2022-12-23T18:54:05.407Z,19.60
2022-12-23T18:56:32.094Z,19.60
2022-12-23T18:58:58.799Z,19.50
2022-12-23T19:01:25.629Z,19.50
2022-12-23T19:03:52.445Z,19.40
2022-12-23T19:06:19.166Z,19.40
2022-12-23T19:08:45.974Z,19.30
2022-12-23T19:11:18.789Z,19.30
2022-12-23T19:13:46.349Z,19.20
2022-12-23T19:16:19.054Z,19.20
2022-12-23T19:18:47.003Z,19.20
2022-12-23T19:21:13.965Z,19.10
2022-12-23T19:23:41.651Z,19.10
2022-12-23T19:26:13.733Z,19.00
2022-12-23T19:28:43.697Z,19.00
2022-12-23T19:31:15.840Z,18.90
2022-12-23T19:33:46.010Z,18.90
2022-12-23T19:36:15.013Z,18.80
2022-12-23T19:38:41.796Z,18.80
2022-12-23T19:41:09.496Z,18.70
2022-12-23T19:43:38.010Z,18.80
2022-12-23T19:46:07.389Z,18.70
2022-12-23T19:48:34.503Z,18.60
2022-12-23T19:51:12.547Z,18.60
2022-12-23T19:53:40.644Z,18.60
2022-12-23T19:56:13.049Z,18.50
2022-12-23T19:58:41.950Z,18.50
2022-12-23T20:01:15.392Z,18.40
2022-12-23T20:03:43.519Z,18.40
2022-12-23T20:06:25.362Z,18.30
2022-12-23T20:08:58.031Z,18.30
2022-12-23T20:11:30.228Z,18.30
2022-12-23T20:13:57.311Z,18.30
2022-12-23T20:16:24.370Z,18.20
2022-12-23T20:18:51.427Z,18.20
2022-12-23T20:21:18.868Z,18.20
2022-12-23T20:23:45.640Z,18.10
2022-12-23T20:26:13.868Z,18.00
2022-12-23T20:28:41.163Z,18.10
2022-12-23T20:31:09.379Z,18.00
2022-12-23T20:33:37.106Z,18.00
2022-12-23T20:36:06.603Z,18.00
2022-12-23T20:38:41.369Z,17.90
2022-12-23T20:41:09.893Z,17.90
2022-12-23T20:43:36.996Z,17.80
2022-12-23T20:46:05.652Z,17.80
2022-12-23T20:48:34.243Z,17.80
2022-12-23T20:51:06.740Z,17.70
2022-12-23T20:53:33.586Z,17.70
2022-12-23T20:56:05.172Z,17.70
2022-12-23T20:58:50.357Z,17.70
2022-12-23T21:01:17.705Z,17.60
2022-12-23T21:03:44.487Z,17.60
2022-12-23T21:06:11.168Z,17.60
2022-12-23T21:08:38.332Z,17.50
2022-12-23T21:11:05.901Z,17.50
2022-12-23T21:13:32.999Z,17.50
2022-12-23T21:16:07.676Z,17.50
2022-12-23T21:18:34.950Z,17.40
2022-12-23T21:21:03.655Z,17.40
2022-12-23T21:23:31.387Z,17.40
2022-12-23T21:26:10.208Z,17.40
2022-12-23T21:28:38.450Z,17.30
2022-12-23T21:31:05.942Z,17.30
2022-12-23T21:33:36.104Z,17.30
2022-12-23T21:36:03.193Z,17.30
2022-12-23T21:38:35.213Z,17.30
2022-12-23T21:41:04.041Z,17.20
2022-12-23T21:43:30.747Z,17.20
2022-12-23T21:46:04.028Z,17.20
2022-12-23T21:48:31.549Z,17.20
2022-12-23T21:51:07.321Z,17.20
2022-12-23T21:53:35.245Z,17.10
2022-12-23T21:56:07.573Z,17.10
2022-12-23T21:58:34.911Z,17.10
2022-12-23T22:01:09.066Z,17.10
2022-12-23T22:03:36.383Z,17.10
2022-12-23T22:06:10.747Z,17.10
2022-12-23T22:08:38.678Z,17.10
2022-12-23T22:11:10.846Z,17.10
2022-12-23T22:13:38.176Z,17.10
2022-12-23T22:16:09.418Z,17.00
2022-12-23T22:18:37.677Z,17.00
2022-12-23T22:21:09.609Z,17.00
2022-12-23T22:23:37.339Z,17.00
2022-12-23T22:26:05.564Z,16.90
2022-12-23T22:28:34.140Z,16.90
2022-12-23T22:31:07.115Z,16.90
2022-12-23T22:33:34.998Z,16.90
2022-12-23T22:36:01.748Z,16.90
2022-12-23T22:38:28.450Z,16.90
2022-12-23T22:40:55.160Z,16.90
2022-12-23T22:43:21.811Z,16.90
2022-12-23T22:45:59.400Z,16.80
2022-12-23T22:48:28.921Z,16.80
2022-12-23T22:51:07.507Z,16.80
2022-12-23T22:53:34.192Z,16.80
2022-12-23T22:56:01.821Z,16.80
2022-12-23T22:58:30.181Z,16.80
2022-12-23T23:00:57.639Z,16.80
2022-12-23T23:03:26.164Z,16.70
2022-12-23T23:06:01.114Z,16.70
2022-12-23T23:08:29.286Z,16.70
2022-12-23T23:10:58.243Z,16.70
2022-12-23T23:13:27.617Z,16.70
2022-12-23T23:15:55.864Z,16.70
2022-12-23T23:18:23.581Z,16.70
2022-12-23T23:20:50.639Z,16.70
2022-12-23T23:23:17.683Z,16.60
2022-12-23T23:25:45.288Z,16.60
2022-12-23T23:28:12.343Z,16.60
2022-12-23T23:30:39.756Z,16.60
2022-12-23T23:33:07.739Z,16.60
2022-12-23T23:35:35.401Z,16.60
2022-12-23T23:38:02.163Z,16.60
2022-12-23T23:40:29.376Z,16.50
2022-12-23T23:42:56.108Z,16.50
2022-12-23T23:45:23.065Z,16.50
2022-12-23T23:47:49.876Z,16.50
2022-12-23T23:50:16.618Z,16.50
2022-12-23T23:52:43.329Z,16.50
2022-12-23T23:55:10.521Z,16.50
2022-12-23T23:57:37.856Z,16.40
